• Join FlightAware (Why Join?)
  • Login
  • US Flag 
07:07AM EDT


 

Airport Tracker/Info


-or-


 

Live Flight TrackerFlight Track Log ✈ N789EX ✈ 19-Mar-2014 ✈ KBFI - KMWH

Flight Track Log - Related Links

Times and Time Zones

All times are in EDT time to prevent confusion due to time zone crossing. See the N789EX flight status page for this flight to view local times or setup timezone preferences in your user account.

Time Position Orientation Groundspeed Altitude Reporting Facility
EDT Latitude Longitude Course Direction KTS MPH feet Rate Location/Type
02:04PM 47.4957 -122.2640 139° Southeast 223 257 1,800  Level FlightAware ADS-B
02:04PM 47.4891 -122.2560 139° Southeast 240 276 2,000 1,860 Climbing FlightAware ADS-B
02:05PM 47.4770 -122.2410 141° Southeast 247 284 2,500 3,300 Climbing FlightAware ADS-B
02:05PM 47.4637 -122.2250 140° Southeast 249 287 3,600 3,960 Climbing FlightAware ADS-B
02:05PM 47.4501 -122.2090 140° Southeast 258 297 4,500 3,660 Climbing FlightAware ADS-B
02:05PM 47.4360 -122.1910 140° Southeast 261 300 5,500 3,660 Climbing FlightAware ADS-B
02:06PM 47.4214 -122.1730 141° Southeast 268 308 6,400 3,780 Climbing FlightAware ADS-B
02:06PM 47.4063 -122.1560 141° Southeast 274 315 7,400 3,900 Climbing FlightAware ADS-B
02:06PM 47.4016 -122.1500 139° Southeast 276 318 7,700 3,960 Climbing FlightAware ADS-B
02:06PM 47.3977 -122.1440 135° Southeast 279 321 8,000 3,240 Climbing FlightAware ADS-B
02:06PM 47.3922 -122.1360 132° Southeast 283 326 8,300 3,240 Climbing FlightAware ADS-B
02:06PM 47.3885 -122.1290 128° Southeast 285 328 8,600 3,420 Climbing FlightAware ADS-B
02:06PM 47.3862 -122.1240 123° Southeast 288 331 8,700 2,520 Climbing FlightAware ADS-B
02:06PM 47.3838 -122.1180 120° Southeast 290 334 8,900 2,520 Climbing FlightAware ADS-B
02:06PM 47.3814 -122.1110 117° Southeast 292 336 9,000 2,520 Climbing FlightAware ADS-B
02:07PM 47.3796 -122.1060 114° Southeast 295 339 9,200 2,220 Climbing FlightAware ADS-B
02:07PM 47.3778 -122.0980 108° East 296 341 9,300 2,220 Climbing FlightAware ADS-B
02:07PM 47.3761 -122.0890 104° East 299 344 9,500 1,980 Climbing FlightAware ADS-B
02:07PM 47.3746 -122.0790 101° East 300 345 9,600 1,200 Climbing FlightAware ADS-B
02:07PM 47.3737 -122.0700 98° East 301 346 9,700 1,980 Climbing FlightAware ADS-B
02:07PM 47.3731 -122.0620 94° East 302 348 9,900 2,640 Climbing FlightAware ADS-B
02:07PM 47.3730 -122.0520 89° East 305 351 10,100 2,160 Climbing FlightAware ADS-B
02:07PM 47.3740 -122.0370 82° East 310 357 10,300 1,920 Climbing FlightAware ADS-B
02:08PM 47.3843 -121.9750 76° East 310 357 11,300 2,700 Climbing FlightAware ADS-B
02:08PM 47.3953 -121.9130 75° East 311 358 13,100 3,300 Climbing FlightAware ADS-B
02:09PM 47.4068 -121.8500 75° East 322 371 14,600 2,400 Climbing FlightAware ADS-B
02:09PM 47.4151 -121.8036 75° East 347 399 15,300 1,740 Climbing FlightAware ADS-B (CYVR)
02:09PM 47.4188 -121.7820 75° East 353 406 15,500 1,380 Climbing FlightAware ADS-B
02:09PM 47.4233 -121.7560 77° East 368 423 15,700 1,440 Climbing FlightAware ADS-B
02:10PM 47.4273 -121.7210 83° East 385 443 16,100 1,320 Climbing FlightAware ADS-B
02:10PM 47.4286 -121.7000 86° East 394 453 16,200 1,260 Climbing FlightAware ADS-B
02:10PM 47.4292 -121.6820 88° East 403 464 16,400 1,980 Climbing FlightAware ADS-B
02:10PM 47.4280 -121.5960 91° East 424 488 17,400 2,220 Climbing FlightAware ADS-B
02:11PM 47.4266 -121.5070 91° East 439 505 18,700 2,220 Climbing FlightAware ADS-B
02:11PM 47.4253 -121.4140 91° East 459 528 19,700 1,740 Climbing FlightAware ADS-B
02:12PM 47.4238 -121.3160 91° East 480 552 20,500 1,920 Climbing FlightAware ADS-B
02:12PM 47.4222 -121.2160 91° East 493 567 21,700 2,160 Climbing FlightAware ADS-B
02:13PM 47.4204 -121.1130 91° East 506 582 22,700 2,040 Climbing FlightAware ADS-B
02:13PM 47.4185 -121.0040 91° East 519 597 23,800 1,980 Climbing FlightAware ADS-B
02:14PM 47.4165 -120.8960 92° East 528 608 24,800 1,920 Climbing FlightAware ADS-B
02:14PM 47.4142 -120.7850 92° East 535 616 25,800 2,100 Climbing FlightAware ADS-B
02:15PM 47.4118 -120.6750 92° East 539 620 26,900 2,220 Climbing FlightAware ADS-B
02:15PM 47.4098 -120.5980 94° East 543 625 27,700 2,280 Climbing FlightAware ADS-B
02:15PM 47.4083 -120.5790 97° East 545 627 27,900 1,620 Climbing FlightAware ADS-B
02:16PM 47.3898 -120.4690 106° East 553 636 28,700 1,620 Climbing FlightAware ADS-B
02:16PM 47.3685 -120.3600 106° East 559 643 29,600 1,680 Climbing FlightAware ADS-B
02:17PM 47.3462 -120.2480 107° East 564 649 30,400 1,620 Climbing FlightAware ADS-B
02:17PM 47.3367 -120.1980 104° East 565 650 30,800 1,500 Climbing FlightAware ADS-B
02:17PM 47.3330 -120.1610 96° East 562 647 31,000 240 Climbing FlightAware ADS-B
02:18PM 47.3411 -120.0430 81° East 549 632 31,000 180 Level FlightAware ADS-B
02:18PM 47.3528 -119.9330 81° East 549 632 31,200 720 Climbing FlightAware ADS-B
02:19PM 47.3662 -119.8160 80° East 556 640 31,800 1,200 Climbing FlightAware ADS-B
02:19PM 47.3809 -119.7010 79° East 561 646 32,500 1,260 Climbing FlightAware ADS-B
02:20PM 47.3972 -119.5750 79° East 563 648 33,200 1,620 Climbing FlightAware ADS-B
02:20PM 47.4156 -119.4320 79° East 567 652 34,500 1,980 Climbing FlightAware ADS-B
02:21PM 47.4240 -119.3840 73° East 553 636 34,900 720 Climbing FlightAware ADS-B
02:21PM 47.4436 -119.2892 73° East 557 641 35,100 660 Climbing Salt Lake Center
02:22PM 47.5061 -119.0850 66° East 548 631 36,000 420 Climbing Salt Lake Center
02:23PM 47.5656 -118.8864 66° East 534 615 36,000 -60 Level Salt Lake Center
02:24PM 47.6258 -118.6858 66° East 534 615 35,900 360 Descending Salt Lake Center
02:26PM 47.7128 -118.4078 65° Northeast 533 613 36,900 780 Climbing Seattle Center
02:27PM 47.7775 -118.2072 64° Northeast 538 619 37,800 960 Climbing Seattle Center
02:28PM 47.8417 -118.0072 64° Northeast 538 619 38,900 540 Climbing Seattle Center
02:29PM 47.9050 -117.8114 64° Northeast 528 608 39,000  Climbing Seattle Center
02:30PM 47.9717 -117.6122 63° Northeast 529 609 38,900 -60 Descending Seattle Center
02:31PM 48.0347 -117.4136 65° Northeast 530 610 38,900  Level Seattle Center
02:32PM 48.0944 -117.2242 65° Northeast 517 595 38,900  Level Seattle Center
02:33PM 48.1494 -117.0519 64° Northeast 472 543 38,900 -60 Level Seattle Center
02:34PM 48.1961 -116.8850 67° East 442 509 38,800 180 Descending Seattle Center
02:35PM 48.2339 -116.7278 70° East 404 465 39,300 -1,020 Climbing Seattle Center
02:36PM 48.2697 -116.5583 72° East 430 495 36,800 -900 Descending Seattle Center
02:37PM 48.3272 -116.3531 67° East 444 511 37,500 240 Climbing Seattle Center
02:38PM 48.3775 -116.1731 67° East 460 529 37,400 120 Descending Seattle Center
02:39PM 48.4300 -115.9917 66° East 480 552 37,800 300 Climbing Seattle Center
02:40PM 48.4906 -115.8033 64° Northeast 494 568 38,100 540 Climbing Seattle Center
02:41PM 48.5522 -115.6100 64° Northeast 504 580 39,000 360 Climbing Seattle Center
02:42PM 48.6125 -115.4264 64° Northeast 497 572 38,900  Descending Seattle Center
02:43PM 48.6019 -115.2419 95° East 477 549 39,000  Climbing Seattle Center
02:44PM 48.4914 -115.1892 162° South 446 513 39,000 -60 Level Seattle Center
02:45PM 48.4167 -115.3200 229° Southwest 415 478 38,900 120 Descending Seattle Center
02:46PM 48.3578 -115.4581 237° Southwest 400 460 39,300 -1,140 Climbing Seattle Center
02:47PM 48.3003 -115.5994 239° Southwest 337 388 36,700 -1,140 Descending Seattle Center
02:48PM 48.2544 -115.7114 238° Southwest 363 418 37,100 240 Climbing Seattle Center
02:49PM 48.1894 -115.8753 239° Southwest 377 434 37,200 180 Climbing Seattle Center
02:50PM 48.1322 -116.0186 239° Southwest 396 456 37,500 540 Climbing Seattle Center
02:52PM 48.0108 -116.3178 239° Southwest 423 487 39,000 420 Climbing Seattle Center
02:53PM 47.9525 -116.4572 238° Southwest 404 465 38,900  Descending Seattle Center
02:54PM 47.8975 -116.5928 239° Southwest 391 450 39,000 -720 Climbing Seattle Center
02:55PM 47.8522 -116.7019 238° Southwest 313 360 37,500 -1,380 Descending Seattle Center
02:56PM 47.8050 -116.8289 241° Southwest 346 398 36,300 -480 Descending Seattle Center
02:57PM 47.7483 -116.9550 236° Southwest 369 425 36,600 240 Climbing Seattle Center
02:58PM 47.6256 -116.9550 180° South 443 510 36,800 540 Climbing Seattle Center
02:59PM 47.4956 -116.9136 168° South 456 525 37,800 780 Climbing Seattle Center
03:00PM 47.3644 -116.8731 168° South 470 541 38,400 480 Climbing Seattle Center
03:01PM 47.2328 -116.8322 168° South 478 550 38,800 240 Climbing Seattle Center
03:02PM 47.0992 -116.7961 170° South 484 557 38,900 60 Climbing Seattle Center
03:03PM 46.9511 -116.7508 168° South 454 522 39,000  Climbing Seattle Center
03:04PM 46.8269 -116.7131 168° South 453 521 39,000  Level Seattle Center
03:05PM 46.7014 -116.6756 168° South 459 528 39,000  Level Seattle Center
03:06PM 46.5728 -116.6350 168° South 472 543 39,000  Level Seattle Center
03:07PM 46.4392 -116.5964 169° South 487 560 39,000 -60 Level Seattle Center
03:09PM 46.3550 -116.7956 239° Southwest 371 427 38,900 -60 Descending Seattle Center
03:10PM 46.4025 -116.9208 299° West 357 411 38,900 -60 Level Seattle Center
03:11PM 46.4497 -117.0422 299° West 349 402 38,800  Descending Seattle Center
03:12PM 46.4992 -117.1658 300° West 349 402 38,900  Climbing Seattle Center
03:13PM 46.5586 -117.2794 307° West 365 420 38,900 -240 Level Seattle Center
03:14PM 46.6478 -117.2022 31° Northeast 389 448 38,500 -1,980 Descending Seattle Center
03:15PM 46.6939 -117.0169 70° East 459 528 34,900 -1,440 Descending Seattle Center
03:17PM 46.7767 -116.9161 40° Northeast 415 478 35,600 600 Climbing Seattle Center
03:18PM 46.8319 -117.0092 311° West 337 388 36,200 540 Climbing Seattle Center
03:19PM 46.8464 -117.1386 279° West 326 375 36,700 480 Climbing Seattle Center
03:20PM 46.8633 -117.2739 280° West 332 382 37,300 480 Climbing Seattle Center
03:21PM 46.8731 -117.4147 276° West 352 405 37,800 180 Climbing Seattle Center
03:22PM 46.7881 -117.5042 216° Southwest 390 449 37,700 120 Descending Seattle Center
03:23PM 46.6694 -117.5364 191° South 431 496 38,100 600 Climbing Seattle Center
03:24PM 46.5575 -117.4594 155° Southeast 450 518 39,000 300 Climbing Seattle Center
03:25PM 46.4872 -117.2994 122° Southeast 469 540 38,800  Descending Seattle Center
03:26PM 46.5000 -117.1053 84° East 438 504 39,000 -1,140 Climbing Seattle Center
03:27PM 46.5969 -117.0558 19° North 377 434 36,500 -1,200 Descending Seattle Center
03:28PM 46.7000 -117.0117 16° North 386 444 36,600 -1,560 Climbing Seattle Center
03:29PM 46.7872 -117.0619 338° Northwest 359 413 33,400 -3,540 Descending Seattle Center
03:30PM 46.8308 -117.1669 301° West 334 384 29,500 -3,360 Descending Seattle Center
03:31PM 46.8053 -117.2858 253° West 308 354 26,600 -2,760 Descending Seattle Center
03:32PM 46.7261 -117.3531 210° Southwest 334 384 24,000 -2,220 Descending Seattle Center
03:33PM 46.6356 -117.3747 189° South 357 411 22,100 -2,160 Descending Seattle Center
03:34PM 46.5425 -117.3175 157° South 367 422 19,600 -2,760 Descending Seattle Center
03:35PM 46.5544 -117.1883 82° East 356 410 16,600 -2,220 Descending Seattle Center
03:36PM 46.6267 -117.1561 17° North 308 354 15,200 -840 Descending Seattle Center
03:37PM 46.5931 -117.2239 234° Southwest 225 259 15,000 360 Descending Seattle Center
03:38PM 46.5306 -117.2456 193° South 228 262 16,000 1,140 Climbing Seattle Center
03:39PM 46.4636 -117.2922 206° Southwest 270 311 17,400 -60 Climbing Seattle Center
03:40PM 46.4850 -117.4017 286° West 292 336 15,900 -720 Descending Seattle Center
03:41PM 46.5283 -117.5228 298° West 322 371 16,000  Climbing Seattle Center
03:42PM 46.5725 -117.6392 299° West 328 377 16,000  Level Seattle Center
03:43PM 46.6175 -117.7583 299° West 332 382 16,000 -600 Level Seattle Center
03:44PM 46.6628 -117.8786 299° West 335 386 14,900 -1,500 Descending Seattle Center
03:45PM 46.7086 -117.9983 299° West 338 389 13,000 -1,440 Descending Seattle Center
03:46PM 46.7586 -118.1356 298° West 332 382 12,000 -540 Descending Seattle Center
03:47PM 46.8011 -118.2536 298° West 331 381 12,000 -540 Level Seattle Center
03:48PM 46.8433 -118.3706 298° West 330 380 10,900 -1,020 Descending Seattle Center
03:49PM 46.8856 -118.4839 299° West 319 367 10,000 -960 Descending Seattle Center
03:50PM 46.9231 -118.5819 299° West 256 295 9,000 -660 Descending Seattle Center
03:51PM 46.9558 -118.6656 300° West 256 295 8,700 -300 Descending Seattle Center